.
WxDataArchive / Data Records for 2009-07-17
2009-07-16 July 2009 2009-07-18

Data Records for Friday, 17 July 2009

Time	Temp	Chill	HIndex	Humid	Dewpt	 Wind 	HiWind	WindDir	Rain 	Barom 
-----	----	-----	------	-----	-----	------	------	-------	-----	----- 
00:00	71.5	71.5	71.5	58	55.9	1	3	315	0.00	29.864 
00:05	70.4	70.4	70.4	60	55.8	0	1	315	0.00	29.864 
00:10	69.6	69.6	69.6	62	56.0	1	2	315	0.00	29.864 
00:15	68.9	68.9	68.9	65	56.6	1	3	315	0.00	29.855 
00:20	68.6	68.6	68.6	66	56.8	0	1	315	0.00	29.855 
00:25	68.3	68.3	68.3	67	56.9	0	3	315	0.00	29.855 
00:30	67.8	67.8	67.8	69	57.2	1	3	292	0.00	29.849 
00:35	67.4	67.4	67.4	71	57.7	0	1	292	0.00	29.849 
00:40	67.3	67.3	67.3	72	58.0	0	1	292	0.00	29.849 
00:45	67.1	67.1	67.1	73	58.1	0	1	292	0.00	29.853 
00:50	66.9	66.9	66.9	75	58.7	0	1	292	0.00	29.853 
00:55	66.6	66.6	66.6	77	59.2	0	1	292	0.00	29.853 
01:00	66.4	66.4	66.4	80	60.0	0	1	292	0.00	29.854 
01:05	66.0	66.0	66.0	82	60.3	0	0	---	0.01	29.854 
01:10	65.6	65.6	65.6	84	60.6	0	0	---	0.00	29.854 
01:15	65.3	65.3	65.3	85	60.7	0	0	---	0.01	29.842 
01:20	65.0	65.0	65.0	87	61.0	0	0	---	0.01	29.842 
01:25	64.8	64.8	64.8	88	61.2	0	0	---	0.01	29.842 
01:30	64.8	64.8	64.8	89	61.5	0	1	292	0.02	29.843 
01:35	64.7	64.7	64.7	90	61.7	0	1	292	0.01	29.843 
01:40	64.5	64.5	64.5	91	61.8	0	1	292	0.01	29.843 
01:45	64.5	64.5	64.5	92	62.1	0	1	292	0.01	29.848 
01:50	64.5	64.5	64.5	92	62.1	0	2	292	0.01	29.848 
01:55	64.5	64.5	64.5	93	62.4	1	3	292	0.02	29.848 
02:00	64.5	64.5	64.5	93	62.4	0	1	248	0.01	29.854 
02:05	64.5	64.5	64.5	93	62.4	0	2	248	0.02	29.854 
02:10	64.7	64.7	64.7	94	62.9	0	2	248	0.02	29.854 
02:15	64.7	64.7	64.7	94	62.9	0	2	248	0.01	29.850 
02:20	64.5	64.5	64.5	94	62.7	1	4	270	0.02	29.850 
02:25	64.2	64.2	64.2	94	62.4	1	3	248	0.01	29.850 
02:30	64.0	64.0	64.0	94	62.2	1	3	248	0.01	29.847 
02:35	63.9	63.9	63.9	94	62.1	0	2	248	0.01	29.847 
02:40	63.9	63.9	63.9	94	62.1	0	2	248	0.01	29.847 
02:45	63.9	63.9	63.9	94	62.1	0	2	248	0.02	29.841 
02:50	63.7	63.7	63.7	94	61.9	0	1	248	0.01	29.841 
02:55	63.7	63.7	63.7	94	61.9	1	2	248	0.02	29.841 
03:00	63.5	63.5	63.5	94	61.7	0	2	248	0.01	29.836 
03:05	63.5	63.5	63.5	95	62.0	0	1	248	0.01	29.836 
03:10	63.5	63.5	63.5	95	62.0	0	1	248	0.01	29.836 
03:15	63.5	63.5	63.5	95	62.0	0	1	248	0.00	29.831 
03:20	63.5	63.5	63.5	95	62.0	0	1	248	0.00	29.831 
03:25	63.5	63.5	63.5	95	62.0	0	0	---	0.00	29.831 
03:30	63.5	63.5	63.5	95	62.0	0	1	248	0.01	29.822 
03:35	63.5	63.5	63.5	95	62.0	0	1	248	0.00	29.822 
03:40	63.7	63.7	63.7	95	62.2	0	1	248	0.00	29.822 
03:45	63.7	63.7	63.7	95	62.2	0	1	248	0.00	29.816 
03:50	63.7	63.7	63.7	95	62.2	0	0	---	0.00	29.816 
03:55	63.7	63.7	63.7	95	62.2	0	0	---	0.00	29.816 
04:00	63.7	63.7	63.7	95	62.2	0	0	---	0.00	29.806 
04:05	63.7	63.7	63.7	95	62.2	0	0	---	0.00	29.806 
04:10	63.7	63.7	63.7	96	62.5	0	1	248	0.00	29.806 
04:15	63.9	63.9	63.9	96	62.7	0	1	248	0.00	29.807 
04:20	63.9	63.9	63.9	96	62.7	0	1	248	0.00	29.807 
04:25	63.9	63.9	63.9	96	62.7	0	1	248	0.00	29.807 
04:30	63.9	63.9	63.9	96	62.7	0	1	248	0.01	29.802 
04:35	63.9	63.9	63.9	96	62.7	0	1	248	0.00	29.802 
04:40	63.9	63.9	63.9	96	62.7	0	1	248	0.00	29.802 
04:45	64.0	64.0	64.0	96	62.8	0	1	248	0.00	29.807 
04:50	63.9	63.9	63.9	96	62.7	0	1	248	0.01	29.807 
04:55	63.9	63.9	63.9	96	62.7	0	1	248	0.01	29.807 
05:00	64.0	64.0	64.0	96	62.8	0	2	248	0.00	29.808 
05:05	64.0	64.0	64.0	96	62.8	0	1	248	0.00	29.808 
05:10	64.0	64.0	64.0	96	62.8	0	1	248	0.00	29.808 
05:15	63.9	63.9	63.9	96	62.7	0	0	---	0.01	29.787 
05:20	63.9	63.9	63.9	96	62.7	0	3	248	0.00	29.787 
05:25	63.9	63.9	63.9	96	62.7	0	3	292	0.00	29.787 
05:30	63.9	63.9	63.9	96	62.7	0	1	292	0.00	29.786 
05:35	63.9	63.9	63.9	96	62.7	1	4	292	0.00	29.786 
05:40	63.9	63.9	63.9	96	62.7	0	3	315	0.00	29.786 
05:45	63.9	63.9	63.9	96	62.7	0	2	315	0.00	29.786 
05:50	63.7	63.7	63.7	96	62.5	0	2	315	0.00	29.786 
05:55	63.7	63.7	63.7	96	62.5	0	1	315	0.00	29.786 
06:00	63.7	63.7	63.7	96	62.5	0	1	315	0.00	29.780 
06:05	63.7	63.7	63.7	96	62.5	0	1	315	0.00	29.780 
06:10	63.5	63.5	63.5	96	62.3	0	0	---	0.00	29.780 
06:15	63.5	63.5	63.5	96	62.3	0	0	---	0.00	29.769 
06:20	63.5	63.5	63.5	96	62.3	0	0	---	0.00	29.769 
06:25	63.4	63.4	63.4	96	62.2	0	0	---	0.00	29.769 
06:30	63.4	63.4	63.4	96	62.2	0	1	315	0.00	29.771 
06:35	63.4	63.4	63.4	96	62.2	0	0	---	0.00	29.771 
06:40	63.4	63.4	63.4	96	62.2	0	0	---	0.00	29.771 
06:45	63.4	63.4	63.4	96	62.2	0	0	---	0.00	29.763 
06:50	63.4	63.4	63.4	96	62.2	0	0	---	0.00	29.763 
06:55	63.4	63.4	63.4	96	62.2	0	0	---	0.00	29.763 
07:00	63.5	63.5	63.5	96	62.3	0	0	---	0.00	29.766 
07:05	63.5	63.5	63.5	96	62.3	0	0	---	0.00	29.766 
07:10	63.7	63.7	63.7	96	62.5	0	0	---	0.00	29.766 
07:15	63.5	63.5	63.5	96	62.3	0	0	---	0.00	29.771 
07:20	63.5	63.5	63.5	96	62.3	0	1	315	0.00	29.771 
07:25	63.5	63.5	63.5	96	62.3	0	0	---	0.00	29.771 
07:30	63.5	63.5	63.5	96	62.3	0	1	315	0.00	29.769 
07:35	63.5	63.5	63.5	96	62.3	0	0	---	0.00	29.769 
07:40	63.4	63.4	63.4	96	62.2	0	1	315	0.00	29.769 
07:45	63.4	63.4	63.4	96	62.2	0	0	---	0.00	29.777 
07:50	63.5	63.5	63.5	96	62.3	0	0	---	0.00	29.777 
07:55	63.5	63.5	63.5	96	62.3	0	0	---	0.00	29.777 
08:00	63.5	63.5	63.5	96	62.3	0	1	315	0.00	29.775 
08:05	63.5	63.5	63.5	96	62.3	0	0	---	0.00	29.775 
08:10	63.5	63.5	63.5	96	62.3	0	1	315	0.00	29.775 
08:15	63.5	63.5	63.5	96	62.3	0	0	---	0.00	29.781 
08:20	63.4	63.4	63.4	96	62.2	0	1	315	0.00	29.781 
08:25	63.2	63.2	63.2	96	62.0	0	1	270	0.00	29.781 
08:30	63.4	63.4	63.4	96	62.2	0	1	248	0.00	29.782 
08:35	63.5	63.5	63.5	96	62.3	0	1	248	0.00	29.782 
08:40	63.5	63.5	63.5	96	62.3	0	1	248	0.00	29.782 
08:45	63.4	63.4	63.4	95	61.9	0	2	0	0.00	29.781 
08:50	63.5	63.5	63.5	95	62.0	0	1	0	0.00	29.781 
08:55	63.9	63.9	63.9	95	62.4	0	2	338	0.00	29.781 
09:00	64.0	64.0	64.0	94	62.2	0	2	338	0.00	29.783 
09:05	64.2	64.2	64.2	94	62.4	0	1	338	0.00	29.783 
09:10	64.0	64.0	64.0	93	61.9	0	1	338	0.00	29.783 
09:15	64.0	64.0	64.0	92	61.6	0	1	338	0.00	29.786 
09:20	64.2	64.2	64.2	91	61.5	1	3	338	0.00	29.786 
09:25	64.2	64.2	64.2	91	61.5	1	2	315	0.00	29.786 
09:30	64.3	64.3	64.3	90	61.3	1	3	315	0.00	29.787 
09:35	64.5	64.5	64.5	89	61.2	0	1	315	0.00	29.787 
09:40	65.0	65.0	65.0	89	61.7	0	2	0	0.00	29.787 
09:45	64.5	64.5	64.5	86	60.2	0	3	315	0.00	29.795 
09:50	64.8	64.8	64.8	85	60.2	0	2	315	0.00	29.795 
09:55	65.0	65.0	65.0	81	59.0	0	2	315	0.00	29.795 
10:00	65.0	65.0	65.0	77	57.6	1	3	315	0.00	29.795 
10:05	64.8	64.8	64.8	73	55.9	1	3	315	0.00	29.795 
10:10	65.0	65.0	65.0	71	55.4	1	3	292	0.00	29.795 
10:15	65.5	65.5	65.5	71	55.8	1	4	292	0.00	29.796 
10:20	66.0	66.0	66.0	73	57.1	1	3	292	0.00	29.796 
10:25	66.3	66.3	66.3	72	57.0	1	2	315	0.00	29.796 
10:30	66.8	66.8	66.8	71	57.1	0	1	315	0.00	29.796 
10:35	67.1	67.1	67.1	68	56.2	1	3	315	0.00	29.796 
10:40	67.3	67.3	67.3	67	56.0	0	2	292	0.00	29.796 
10:45	67.6	67.6	67.6	69	57.1	0	1	292	0.00	29.798 
10:50	68.3	68.3	68.3	68	57.3	1	3	292	0.00	29.798 
10:55	68.3	68.3	68.3	63	55.2	1	5	292	0.00	29.798 
11:00	68.4	68.4	68.4	63	55.3	1	3	292	0.00	29.796 
11:05	68.4	68.4	68.4	61	54.4	1	3	315	0.00	29.796 
11:10	68.6	68.6	68.6	60	54.1	1	5	315	0.00	29.796 
11:15	68.9	68.9	68.9	58	53.5	1	4	248	0.00	29.796 
11:20	68.9	68.9	68.9	56	52.5	2	4	315	0.00	29.796 
11:25	69.3	69.3	69.3	58	53.9	1	3	315	0.00	29.796 
11:30	69.6	69.6	69.6	58	54.2	0	2	315	0.00	29.793 
11:35	70.1	70.1	70.1	57	54.1	1	4	315	0.00	29.793 
11:40	70.4	70.4	70.4	56	53.9	2	4	270	0.00	29.793 
11:45	70.1	70.1	70.1	53	52.2	2	5	315	0.00	29.795 
11:50	70.4	70.4	70.4	56	53.9	1	4	315	0.00	29.795 
11:55	70.9	70.9	70.9	53	52.9	1	4	270	0.00	29.795 
12:00	71.1	71.1	71.1	53	53.1	2	4	270	0.00	29.794 
12:05	71.3	71.3	71.3	51	52.2	2	6	292	0.00	29.794 
12:10	71.1	71.1	71.1	50	51.5	1	3	292	0.00	29.794 
12:15	70.9	70.9	70.9	48	50.2	1	4	292	0.00	29.795 
12:20	70.9	70.9	70.9	49	50.8	2	5	315	0.00	29.795 
12:25	70.4	70.4	70.4	51	51.4	1	4	292	0.00	29.795 
12:30	70.6	70.6	70.6	51	51.6	1	5	270	0.00	29.795 
12:35	70.4	70.4	70.4	52	51.9	1	4	338	0.00	29.795 
12:40	69.8	69.8	69.8	50	50.3	2	6	270	0.00	29.795 
12:45	70.4	70.4	70.4	52	51.9	1	4	270	0.00	29.794 
12:50	71.8	71.8	71.8	50	52.1	2	4	270	0.00	29.794 
12:55	71.6	71.6	71.6	46	49.7	2	5	292	0.00	29.794 
13:00	70.9	70.9	70.9	47	49.7	3	6	270	0.00	29.791 
13:05	71.5	71.5	71.5	49	51.3	2	5	315	0.00	29.791 
13:10	72.0	72.0	72.0	49	51.8	2	5	315	0.00	29.791 
13:15	72.3	72.3	72.3	49	52.1	2	5	270	0.00	29.788 
13:20	72.8	72.8	72.8	47	51.4	2	7	315	0.00	29.788 
13:25	73.0	73.0	73.0	48	52.1	2	7	270	0.00	29.788 
13:30	72.1	72.1	72.1	49	51.9	2	5	315	0.00	29.791 
13:35	71.1	71.1	71.1	48	50.4	3	7	270	0.00	29.791 
13:40	70.8	70.8	70.8	50	51.2	2	5	315	0.00	29.791 
13:45	70.6	70.6	70.6	50	51.0	2	4	315	0.00	29.793 
13:50	70.9	70.9	70.9	54	53.4	3	5	292	0.00	29.793 
13:55	71.3	71.3	71.3	51	52.2	2	5	270	0.00	29.793 
14:00	71.8	71.8	71.8	51	52.7	2	5	315	0.00	29.791 
14:05	72.5	72.5	72.5	53	54.4	2	4	292	0.00	29.791 
14:10	72.7	72.7	72.7	48	51.9	2	5	292	0.00	29.791 
14:15	71.8	71.8	71.8	50	52.1	2	5	292	0.00	29.792 
14:20	71.3	71.3	71.3	50	51.7	1	3	315	0.00	29.792 
14:25	70.9	70.9	70.9	49	50.8	2	5	315	0.00	29.792 
14:30	71.6	71.6	71.6	50	52.0	2	4	315	0.00	29.795 
14:35	71.5	71.5	71.5	51	52.4	2	5	270	0.00	29.795 
14:40	70.8	70.8	70.8	52	52.3	2	5	270	0.00	29.795 
14:45	70.3	70.3	70.3	53	52.3	3	5	270	0.00	29.797 
14:50	70.9	70.9	70.9	50	51.3	3	7	270	0.00	29.797 
14:55	71.6	71.6	71.6	49	51.4	2	5	292	0.00	29.797 
15:00	72.3	72.3	72.3	48	51.5	1	4	315	0.00	29.790 
15:05	72.7	72.7	72.7	48	51.9	2	7	338	0.00	29.790 
15:10	73.2	73.2	73.2	44	50.0	3	6	270	0.00	29.790 
15:15	73.0	73.0	73.0	44	49.8	3	7	292	0.00	29.799 
15:20	73.2	73.2	73.2	43	49.3	3	6	270	0.00	29.799 
15:25	73.3	73.3	73.3	44	50.1	3	9	292	0.00	29.799 
15:30	73.2	73.2	73.2	42	48.7	3	10	270	0.00	29.799 
15:35	72.5	72.5	72.5	44	49.3	3	7	270	0.00	29.799 
15:40	72.1	72.1	72.1	43	48.4	3	9	292	0.00	29.799 
15:45	71.5	71.5	71.5	44	48.4	3	6	270	0.00	29.802 
15:50	71.1	71.1	71.1	46	49.3	2	5	315	0.00	29.802 
15:55	71.8	71.8	71.8	46	49.9	2	5	315	0.00	29.802 
16:00	71.8	71.8	71.8	45	49.3	2	6	292	0.00	29.802 
16:05	70.9	70.9	70.9	46	49.1	2	4	315	0.00	29.802 
16:10	70.4	70.4	70.4	47	49.2	2	5	292	0.00	29.802 
16:15	69.9	69.9	69.9	49	49.9	2	6	292	0.00	29.811 
16:20	69.8	69.8	69.8	50	50.3	2	6	270	0.00	29.811 
16:25	69.4	69.4	69.4	48	48.8	3	6	292	0.00	29.811 
16:30	69.3	69.3	69.3	48	48.8	2	5	292	0.00	29.818 
16:35	69.1	69.1	69.1	47	48.0	3	6	315	0.00	29.818 
16:40	69.1	69.1	69.1	48	48.6	2	4	315	0.00	29.818 
16:45	68.9	68.9	68.9	49	48.9	2	6	270	0.00	29.821 
16:50	68.6	68.6	68.6	49	48.7	2	5	270	0.00	29.821 
16:55	68.4	68.4	68.4	49	48.5	3	6	270	0.00	29.821 
17:00	68.3	68.3	68.3	50	48.9	2	4	292	0.00	29.822 
17:05	68.1	68.1	68.1	51	49.3	1	4	315	0.00	29.822 
17:10	68.1	68.1	68.1	51	49.3	1	5	315	0.00	29.822 
17:15	67.9	67.9	67.9	51	49.1	3	6	270	0.00	29.828 
17:20	67.8	67.8	67.8	52	49.5	2	5	292	0.00	29.828 
17:25	67.4	67.4	67.4	51	48.6	3	5	292	0.00	29.828 
17:30	67.3	67.3	67.3	52	49.1	2	5	315	0.00	29.835 
17:35	67.3	67.3	67.3	54	50.1	2	5	292	0.00	29.835 
17:40	67.1	67.1	67.1	53	49.4	3	9	315	0.00	29.835 
17:45	66.9	66.9	66.9	54	49.7	1	3	315	0.00	29.837 
17:50	66.9	66.9	66.9	55	50.2	1	4	315	0.00	29.837 
17:55	66.8	66.8	66.8	54	49.6	1	4	270	0.00	29.837 
18:00	66.8	66.8	66.8	54	49.6	2	5	338	0.00	29.837 
18:05	66.6	66.6	66.6	55	49.9	2	4	270	0.00	29.837 
18:10	66.4	66.4	66.4	55	49.7	2	5	270	0.00	29.837 
18:15	66.3	66.3	66.3	54	49.1	2	5	270	0.00	29.840 
18:20	66.0	66.0	66.0	55	49.4	3	5	292	0.00	29.840 
18:25	65.6	65.6	65.6	57	49.9	2	5	270	0.00	29.840 
18:30	65.5	65.5	65.5	58	50.3	1	3	270	0.00	29.837 
18:35	65.3	65.3	65.3	58	50.1	2	5	270	0.00	29.837 
18:40	65.3	65.3	65.3	59	50.6	1	3	270	0.00	29.837 
18:45	65.3	65.3	65.3	59	50.6	1	3	270	0.00	29.840 
18:50	65.3	65.3	65.3	59	50.6	1	2	270	0.00	29.840 
18:55	65.3	65.3	65.3	61	51.5	1	5	270	0.00	29.840 
19:00	65.3	65.3	65.3	60	51.1	1	5	270	0.00	29.841 
19:05	65.2	65.2	65.2	61	51.4	1	3	270	0.00	29.841 
19:10	65.3	65.3	65.3	62	51.9	1	3	270	0.00	29.841 
19:15	65.6	65.6	65.6	60	51.3	1	3	270	0.00	29.844 
19:20	65.6	65.6	65.6	61	51.8	1	3	270	0.00	29.844 
19:25	65.8	65.8	65.8	61	52.0	1	3	270	0.00	29.844 
19:30	65.8	65.8	65.8	61	52.0	1	4	248	0.00	29.845 
19:35	65.6	65.6	65.6	61	51.8	1	3	248	0.00	29.845 
19:40	65.3	65.3	65.3	61	51.5	1	3	248	0.00	29.845 
19:45	65.3	65.3	65.3	62	51.9	1	3	270	0.00	29.845 
19:50	65.6	65.6	65.6	61	51.8	2	4	270	0.00	29.845 
19:55	65.8	65.8	65.8	61	52.0	1	3	292	0.00	29.845 
20:00	66.0	66.0	66.0	61	52.2	1	4	270	0.00	29.852 
20:05	66.1	66.1	66.1	61	52.3	1	3	270	0.00	29.852 
20:10	66.0	66.0	66.0	61	52.2	1	3	270	0.00	29.852 
20:15	65.6	65.6	65.6	62	52.2	1	4	270	0.00	29.854 
20:20	65.5	65.5	65.5	62	52.1	0	2	270	0.00	29.854 
20:25	65.2	65.2	65.2	62	51.8	0	2	270	0.00	29.854 
20:30	65.2	65.2	65.2	63	52.3	0	3	270	0.00	29.857 
20:35	65.0	65.0	65.0	63	52.1	0	2	270	0.00	29.857 
20:40	65.0	65.0	65.0	63	52.1	1	3	270	0.00	29.857 
20:45	65.0	65.0	65.0	63	52.1	0	2	270	0.00	29.863 
20:50	65.0	65.0	65.0	64	52.5	0	1	270	0.00	29.863 
20:55	65.0	65.0	65.0	64	52.5	0	1	270	0.00	29.863 
21:00	65.0	65.0	65.0	64	52.5	0	0	---	0.00	29.866 
21:05	64.8	64.8	64.8	65	52.8	0	1	270	0.00	29.866 
21:10	64.8	64.8	64.8	65	52.8	0	0	---	0.00	29.866 
21:15	64.7	64.7	64.7	65	52.7	0	1	270	0.00	29.865 
21:20	64.7	64.7	64.7	65	52.7	0	2	270	0.00	29.865 
21:25	64.5	64.5	64.5	65	52.5	0	1	270	0.00	29.865 
21:30	64.3	64.3	64.3	66	52.7	0	1	270	0.00	29.866 
21:35	64.3	64.3	64.3	66	52.7	0	0	---	0.00	29.866 
21:40	64.2	64.2	64.2	67	53.0	0	1	270	0.00	29.866 
21:45	64.2	64.2	64.2	67	53.0	0	1	270	0.00	29.870 
21:50	64.0	64.0	64.0	67	52.8	1	2	270	0.00	29.870 
21:55	63.9	63.9	63.9	67	52.7	1	2	270	0.00	29.870 
22:00	63.7	63.7	63.7	67	52.5	0	1	270	0.00	29.872 
22:05	63.7	63.7	63.7	68	52.9	0	1	270	0.00	29.872 
22:10	63.5	63.5	63.5	68	52.7	0	3	270	0.00	29.872 
22:15	63.5	63.5	63.5	69	53.1	0	2	270	0.00	29.870 
22:20	63.5	63.5	63.5	69	53.1	0	2	270	0.00	29.870 
22:25	63.5	63.5	63.5	69	53.1	0	1	270	0.00	29.870 
22:30	63.5	63.5	63.5	69	53.1	0	3	270	0.00	29.875 
22:35	63.5	63.5	63.5	69	53.1	2	4	270	0.00	29.875 
22:40	63.5	63.5	63.5	69	53.1	1	4	270	0.00	29.875 
22:45	63.5	63.5	63.5	69	53.1	1	4	292	0.00	29.880 
22:50	63.5	63.5	63.5	69	53.1	1	3	292	0.00	29.880 
22:55	63.4	63.4	63.4	69	53.0	1	4	292	0.00	29.880 
23:00	63.4	63.4	63.4	70	53.4	1	3	292	0.00	29.885 
23:05	63.4	63.4	63.4	70	53.4	1	4	292	0.00	29.885 
23:10	62.6	62.6	62.6	77	55.3	1	4	292	0.01	29.885 
23:15	61.2	61.2	61.2	82	55.7	0	2	292	0.00	29.890 
23:20	60.2	60.2	60.2	84	55.3	0	1	292	0.00	29.890 
23:25	59.5	59.5	59.5	85	55.0	0	2	292	0.00	29.890 
23:30	59.2	59.2	59.2	86	55.0	0	1	292	0.00	29.888 
23:35	59.0	59.0	59.0	87	55.1	0	1	292	0.00	29.888 
23:40	58.9	58.9	58.9	88	55.3	0	1	292	0.00	29.888 
23:45	58.9	58.9	58.9	88	55.3	0	1	292	0.00	29.888 
23:50	58.9	58.9	58.9	88	55.3	0	0	---	0.00	29.888 
23:55	58.9	58.9	58.9	88	55.3	0	1	292	0.00	29.888 

CoCoRaHS
IN-AL-39
A2 Web Hosting
Creative Commons License
GoDaddy
search engine by freefind advanced

loaded 2018-11-12 19:50:35 • last modified 2010-11-18 10:43:29
Privacy PolicyDisclaimer
• wx.awcolley.com is powered by PmWiki v.2002016 •
• all content (unless otherwise noted) © 2018 A W Colley